createdAt,value
2023-06-10T00:03:53.503Z,99.90
2023-06-10T00:08:55.168Z,99.90
2023-06-10T00:13:56.937Z,99.90
2023-06-10T00:18:58.457Z,99.90
2023-06-10T00:23:59.968Z,99.90
2023-06-10T00:29:01.457Z,99.90
2023-06-10T00:34:02.976Z,99.90
2023-06-10T00:39:04.457Z,99.90
2023-06-10T00:44:05.979Z,99.90
2023-06-10T00:49:07.698Z,99.90
2023-06-10T00:54:09.192Z,99.90
2023-06-10T00:59:10.698Z,99.90
2023-06-10T01:04:12.193Z,99.90
2023-06-10T01:09:13.716Z,99.90
2023-06-10T01:14:15.219Z,99.90
2023-06-10T01:19:16.718Z,99.90
2023-06-10T01:24:18.380Z,99.90
2023-06-10T01:29:20.124Z,99.90
2023-06-10T01:34:21.605Z,99.90
2023-06-10T01:39:23.482Z,99.90
2023-06-10T01:44:25.023Z,99.90
2023-06-10T01:49:26.519Z,99.90
2023-06-10T01:54:28.015Z,99.90
2023-06-10T01:59:29.569Z,99.90
2023-06-10T02:04:31.180Z,99.90
2023-06-10T02:09:32.692Z,99.90
2023-06-10T02:14:34.176Z,99.90
2023-06-10T02:19:35.653Z,99.90
2023-06-10T02:24:37.172Z,99.90
2023-06-10T02:29:38.677Z,99.90
2023-06-10T02:34:40.179Z,99.90
2023-06-10T02:39:41.818Z,99.90
2023-06-10T02:44:43.340Z,99.90
2023-06-10T02:49:45.007Z,99.90
2023-06-10T02:54:46.722Z,99.90
2023-06-10T02:59:48.225Z,99.90
2023-06-10T03:04:49.725Z,99.90
2023-06-10T03:09:51.205Z,99.90
2023-06-10T03:14:52.701Z,99.90
2023-06-10T03:19:54.202Z,99.90
2023-06-10T03:24:55.698Z,99.90
2023-06-10T03:29:57.214Z,99.90
2023-06-10T03:34:59.011Z,99.90
2023-06-10T03:40:00.519Z,99.90
2023-06-10T03:45:02.047Z,99.90
2023-06-10T03:50:03.560Z,99.90
2023-06-10T03:55:05.199Z,99.90
2023-06-10T04:00:06.726Z,99.90
2023-06-10T04:05:08.469Z,99.90
2023-06-10T04:10:10.180Z,99.90
2023-06-10T04:15:11.901Z,99.90
2023-06-10T04:20:13.653Z,99.90
2023-06-10T04:25:15.193Z,99.90
2023-06-10T04:30:16.705Z,99.90
2023-06-10T04:35:18.269Z,99.90
2023-06-10T04:40:19.772Z,99.90
2023-06-10T04:45:21.256Z,99.90
2023-06-10T04:50:22.761Z,99.90
2023-06-10T04:55:24.434Z,99.90
2023-06-10T05:00:25.922Z,99.90
2023-06-10T05:05:27.422Z,99.90
2023-06-10T05:10:28.937Z,99.90
2023-06-10T05:15:30.453Z,99.90
2023-06-10T05:20:31.941Z,99.90
2023-06-10T05:25:33.457Z,99.90
2023-06-10T05:30:34.946Z,99.90
2023-06-10T05:35:36.453Z,99.90
2023-06-10T05:40:37.946Z,99.90
2023-06-10T05:45:39.489Z,99.90
2023-06-10T05:50:40.980Z,99.90
2023-06-10T05:55:42.458Z,99.90
2023-06-10T06:00:43.964Z,99.90
2023-06-10T06:05:45.464Z,99.90
2023-06-10T06:10:47.005Z,99.90
2023-06-10T06:15:48.542Z,99.90
2023-06-10T06:20:50.028Z,99.90
2023-06-10T06:25:51.562Z,99.90
2023-06-10T06:30:53.056Z,99.90
2023-06-10T06:35:54.535Z,99.90
2023-06-10T06:40:56.049Z,99.90
2023-06-10T06:45:57.728Z,99.90
2023-06-10T06:50:59.229Z,99.90
2023-06-10T06:56:00.702Z,99.90
2023-06-10T07:01:02.246Z,99.90
2023-06-10T07:06:03.800Z,99.90
2023-06-10T07:11:05.309Z,99.90
2023-06-10T07:16:06.821Z,99.90
2023-06-10T07:21:08.312Z,99.90
2023-06-10T07:26:09.829Z,99.90
2023-06-10T07:31:11.597Z,99.90
2023-06-10T07:36:13.150Z,99.90
2023-06-10T07:41:14.660Z,99.90
2023-06-10T07:46:16.175Z,99.90
2023-06-10T07:51:17.662Z,99.90
2023-06-10T07:56:19.156Z,99.90
2023-06-10T08:01:20.674Z,99.90
2023-06-10T08:06:22.203Z,99.90
2023-06-10T08:11:23.743Z,99.90
2023-06-10T08:16:25.332Z,99.90
2023-06-10T08:21:26.881Z,99.90
2023-06-10T08:26:28.377Z,99.90
2023-06-10T08:31:29.891Z,99.90
2023-06-10T08:36:31.445Z,99.90
2023-06-10T08:41:32.973Z,99.90
2023-06-10T08:46:34.501Z,99.90
2023-06-10T08:51:36.058Z,99.90
2023-06-10T08:56:39.907Z,99.90
2023-06-10T09:01:41.715Z,99.90
2023-06-10T09:06:43.296Z,99.90
2023-06-10T09:11:44.808Z,99.90
2023-06-10T09:16:46.397Z,99.90
2023-06-10T09:21:47.915Z,99.90
2023-06-10T09:26:49.413Z,99.90
2023-06-10T09:31:51.056Z,99.90
2023-06-10T09:36:52.578Z,99.90
2023-06-10T09:41:54.152Z,99.90
2023-06-10T09:46:55.978Z,99.90
2023-06-10T09:51:58.365Z,99.90
2023-06-10T09:56:59.967Z,99.90
2023-06-10T10:02:01.899Z,99.90
2023-06-10T10:07:03.490Z,99.90
2023-06-10T10:12:05.005Z,99.90
2023-06-10T10:17:06.619Z,99.90
2023-06-10T10:22:08.204Z,99.90
2023-06-10T10:27:09.747Z,99.90
2023-06-10T10:32:11.375Z,99.90
2023-06-10T10:37:13.168Z,99.90
2023-06-10T10:42:14.762Z,97.90
2023-06-10T10:47:16.340Z,97.70
2023-06-10T10:52:18.079Z,96.40
2023-06-10T10:57:19.730Z,96.00
2023-06-10T11:02:21.499Z,93.70
2023-06-10T11:07:23.392Z,93.10
2023-06-10T11:12:25.060Z,95.00
2023-06-10T11:17:26.574Z,93.70
2023-06-10T11:22:28.107Z,91.50
2023-06-10T11:27:29.635Z,90.20
2023-06-10T11:32:31.250Z,90.10
2023-06-10T11:37:32.839Z,85.50
2023-06-10T11:42:34.323Z,87.50
2023-06-10T11:47:35.882Z,83.80
2023-06-10T11:52:37.510Z,85.90
2023-06-10T11:57:39.020Z,83.40
2023-06-10T12:02:40.609Z,84.00
2023-06-10T12:07:42.154Z,82.40
2023-06-10T12:12:43.909Z,77.20
2023-06-10T12:17:45.444Z,77.50
2023-06-10T12:22:47.003Z,74.20
2023-06-10T12:27:48.539Z,75.20
2023-06-10T12:32:50.358Z,75.10
2023-06-10T12:37:51.874Z,74.00
2023-06-10T12:42:53.360Z,72.60
2023-06-10T12:47:54.881Z,70.20
2023-06-10T12:52:56.649Z,70.80
2023-06-10T12:57:58.145Z,70.50
2023-06-10T13:02:59.689Z,72.00
2023-06-10T13:08:01.282Z,69.70
2023-06-10T13:13:02.770Z,71.10
2023-06-10T13:18:04.280Z,68.20
2023-06-10T13:23:05.840Z,68.40
2023-06-10T13:28:07.336Z,68.50
2023-06-10T13:33:08.896Z,66.20
2023-06-10T13:38:10.441Z,66.60
2023-06-10T13:43:11.944Z,65.80
2023-06-10T13:48:13.573Z,64.50
2023-06-10T13:53:15.140Z,62.70
2023-06-10T13:58:16.658Z,60.30
2023-06-10T14:03:18.297Z,61.70
2023-06-10T14:08:19.983Z,61.10
2023-06-10T14:13:21.573Z,61.30
2023-06-10T14:18:23.241Z,59.20
2023-06-10T14:23:24.754Z,59.30
2023-06-10T14:28:26.264Z,57.60
2023-06-10T14:33:27.770Z,57.20
2023-06-10T14:38:29.273Z,56.60
2023-06-10T14:43:30.779Z,56.10
2023-06-10T14:48:32.379Z,56.00
2023-06-10T14:53:34.181Z,55.00
2023-06-10T14:58:35.836Z,55.10
2023-06-10T15:03:37.643Z,54.30
2023-06-10T15:08:39.363Z,54.80
2023-06-10T15:13:40.848Z,56.30
2023-06-10T15:18:42.328Z,54.50
2023-06-10T15:23:43.862Z,53.80
2023-06-10T15:28:45.692Z,56.00
2023-06-10T15:33:47.915Z,56.50
2023-06-10T15:38:49.474Z,56.40
2023-06-10T15:43:50.993Z,56.50
2023-06-10T15:48:52.527Z,56.20
2023-06-10T15:53:54.061Z,54.70
2023-06-10T15:58:55.583Z,53.50
2023-06-10T16:03:57.133Z,52.20
2023-06-10T16:08:58.642Z,50.80
2023-06-10T16:14:00.157Z,50.80
2023-06-10T16:19:01.650Z,48.30
2023-06-10T16:24:03.222Z,49.00
2023-06-10T16:29:04.765Z,48.50
2023-06-10T16:34:06.263Z,49.70
2023-06-10T16:39:07.762Z,49.50
2023-06-10T16:44:09.272Z,49.80
2023-06-10T16:49:10.921Z,51.30
2023-06-10T16:54:12.435Z,51.50
2023-06-10T16:59:13.946Z,52.50
2023-06-10T17:04:15.458Z,53.30
2023-06-10T17:09:17.259Z,54.40
2023-06-10T17:14:18.899Z,55.80
2023-06-10T17:19:20.431Z,56.30
2023-06-10T17:24:22.101Z,57.00
2023-06-10T17:29:23.983Z,57.60
2023-06-10T17:34:26.590Z,58.40
2023-06-10T17:39:28.129Z,57.90
2023-06-10T17:44:29.695Z,58.20
2023-06-10T17:49:33.170Z,58.80
2023-06-10T17:54:36.373Z,58.80
2023-06-10T17:59:37.986Z,59.30
2023-06-10T18:04:39.952Z,59.80
2023-06-10T18:09:41.478Z,60.10
2023-06-10T18:14:42.946Z,60.70
2023-06-10T18:19:44.435Z,60.50
2023-06-10T18:24:45.911Z,60.80
2023-06-10T18:29:47.416Z,61.40
2023-06-10T18:34:48.926Z,62.40
2023-06-10T18:39:50.480Z,63.40
2023-06-10T18:44:51.958Z,64.00
2023-06-10T18:49:53.437Z,63.70
2023-06-10T18:54:55.078Z,64.40
2023-06-10T18:59:56.857Z,64.20
2023-06-10T19:04:58.371Z,64.60
2023-06-10T19:10:00.184Z,65.30
2023-06-10T19:15:01.715Z,65.50
2023-06-10T19:20:03.218Z,65.90
2023-06-10T19:25:04.707Z,66.70
2023-06-10T19:30:06.187Z,67.10
2023-06-10T19:35:07.796Z,67.80
2023-06-10T19:40:09.458Z,67.80
2023-06-10T19:45:11.498Z,69.00
2023-06-10T19:50:13.507Z,69.70
2023-06-10T19:55:14.988Z,71.50
2023-06-10T20:00:16.497Z,72.30
2023-06-10T20:05:18.017Z,73.40
2023-06-10T20:10:19.530Z,74.20
2023-06-10T20:15:21.023Z,75.30
2023-06-10T20:20:22.521Z,76.00
2023-06-10T20:25:24.104Z,76.50
2023-06-10T20:30:25.659Z,77.20
2023-06-10T20:35:27.164Z,78.00
2023-06-10T20:40:28.649Z,78.50
2023-06-10T20:45:30.162Z,78.50
2023-06-10T20:50:31.662Z,79.50
2023-06-10T20:55:33.178Z,79.40
2023-06-10T21:00:34.692Z,80.20
2023-06-10T21:05:36.199Z,80.50
2023-06-10T21:10:37.801Z,82.10
2023-06-10T21:15:39.300Z,82.10
2023-06-10T21:20:40.792Z,82.80
2023-06-10T21:25:42.298Z,84.20
2023-06-10T21:30:43.967Z,84.00
2023-06-10T21:35:45.539Z,84.40
2023-06-10T21:40:47.021Z,84.50
2023-06-10T21:45:48.510Z,85.40
2023-06-10T21:50:50.128Z,85.30
2023-06-10T21:55:51.628Z,86.20
2023-06-10T22:00:53.126Z,85.70
2023-06-10T22:05:54.662Z,86.40
2023-06-10T22:10:56.147Z,86.70
2023-06-10T22:15:57.635Z,87.20
2023-06-10T22:20:59.106Z,88.00
2023-06-10T22:26:00.605Z,88.10
2023-06-10T22:31:02.476Z,89.00
2023-06-10T22:36:04.007Z,88.30
2023-06-10T22:41:05.525Z,88.90
2023-06-10T22:46:07.029Z,90.00
2023-06-10T22:51:08.562Z,90.50
2023-06-10T22:56:10.086Z,91.20
2023-06-10T23:01:11.591Z,91.80
2023-06-10T23:06:13.074Z,92.20
2023-06-10T23:11:14.561Z,92.50
2023-06-10T23:16:16.079Z,93.10
2023-06-10T23:21:17.666Z,93.60
2023-06-10T23:26:19.150Z,94.90
2023-06-10T23:31:20.686Z,94.60
2023-06-10T23:36:22.213Z,95.50
2023-06-10T23:41:23.967Z,95.40
2023-06-10T23:46:25.665Z,96.00
2023-06-10T23:51:27.196Z,96.10
2023-06-10T23:56:28.678Z,96.70
